Terminal Aerodrome Forecast
Issued by NWS

Home | Current Version | Previous Version | Text Only | Print | Product List | Glossary On
Versions: 1 2 3 4 5 6 7 8 9 10 11 12 13 14 15 16 17 18 19
000
FTUS43 KPAH 180537
TAFCGI
TAF
KCGI 180537Z 1806/1906 00000KT 4SM BR BCFG SCT080 BKN150
      TEMPO 1808/1812 1SM BR
     FM181400 23005KT P6SM SCT050 BKN120 PROB30 1818/1824 5SM -SHRA
      BKN035
     FM190000 17002KT P6SM BKN130=

USA.gov is the U.S. government's official web portal to all federal, state and local government web resources and services.